Estación Meteorológica Peña el Pijo (Robertgarden) [ 05/26/19 18:45:51 CEST ]

Fecha Hora Presion(HPa) Temp (°C) Humedad % Rocio (°C) Viento ( m/s) Direccion Lluvia 1Hora(mm) Lluvia 24H(mm) LLuvia Total(mm)
2018-Dec-23 01:01:48 1019.500 1.8 81 -1.1         160.58
2018-Dec-23 02:01:46 1019.300 1.2 82 -1.6         160.58
2018-Dec-23 03:03:13 1019.300 0.9 82 -1.9         160.58
2018-Dec-23 04:01:29 1019.100 0.4 84 -2.0         160.58
2018-Dec-23 05:01:47 1019.100 0.1 84 -2.3         160.58
2018-Dec-23 06:01:39 1018.900 0.1 84 -2.3         160.58
2018-Dec-23 07:01:48 1018.900 0.3 85 -1.9         160.58
2018-Dec-23 08:01:58 1019.100 0.1 85 -2.1         160.58
2018-Dec-23 09:02:04 1019.300 -0.4 85 -2.6         160.58
2018-Dec-23 10:01:49 1019.900 4.1 86 1.9         160.58
2018-Dec-23 11:01:51 1020.000 10.4 76 6.3         160.58
2018-Dec-23 12:01:49 1019.100 15.6 53 6.0         160.58
2018-Dec-23 13:01:44 1018.200 18.3 40 4.5         160.58
2018-Dec-23 14:01:56 1017.800 19.7 38 4.9 1.9 NE     160.58
2018-Dec-23 15:01:47 1017.400 20.3 32 3.0         160.58
2018-Dec-23 16:01:53 1017.200 19.9 34 3.4         160.58
2018-Dec-23 17:01:56 1017.100 16.2 40 2.6         160.58
2018-Dec-23 18:01:47 1018.000 11.3 50 1.3         160.58
2018-Dec-23 19:01:57 1018.600 7.8 59 0.3         160.58
2018-Dec-23 20:01:42 1019.000 5.6 64 -0.7         160.58
2018-Dec-23 21:02:00 1019.200 4.5 69 -0.7         160.58
2018-Dec-23 22:01:49 1019.300 3.6 71 -1.2         160.58
2018-Dec-23 23:02:00 1019.200 3.0 73 -1.4         160.58

Temperatura Máxima:20°    Temperatura Mínima:
Presión Máxima:1020.000 Hpa    Presión Mínima:1017.100 Hpa


Volver